KPWM/PWM METAR and TAF weather

Enter ICAO airport designator
Station Type Date Time Source
KPWM METAR 2019/06/26 06:06 UTC NOAA

KPWM 260606Z AUTO 08004KT 2 1/2SM BR OVC003 17/16 A2995 RMK AO2 T01670156


Station Type Date Time Source
KPWM Decoded METAR 2019/06/26 06:06 UTC NOAA

PORTLAND INTERNATIONAL JETPORT, ME, United States (KPWM) 43-39N 70-18W 15M
Jun 26, 2019 - 02:06 AM EDT / 2019.06.26 0606 UTC
Wind: from the E (080 degrees) at 5 MPH (4 KT):0
Visibility: 2 1/2 mile(s):0
Sky conditions: overcast
Weather: mist
Temperature: 62.1 F (16.7 C)
Dew Point: 60.1 F (15.6 C)
Relative Humidity: 93%
Pressure (altimeter): 29.95 in. Hg (1014 hPa)
ob: KPWM 260606Z AUTO 08004KT 2 1/2SM BR OVC003 17/16 A2995 RMK AO2 T01670156
cycle: 6

Station Type Date Time Source
KPWM TAF 2019/06/26 06:22 UTC NOAA

TAF KPWM 260520Z 2606/2706 12004KT 2SM BR FEW005 OVC010
FM261000 04003KT 2SM BR BKN005
FM261300 04003KT 4SM BR OVC012
FM261800 07007KT 5SM BR BKN045
FM262300 07005KT 2SM BR BKN012

Example: see airport list